Golden Lake, Indiana
Current Conditions -  °F | °C
As of 7:15 PM on Saturday 25 Oct 2014 (Local Time) from KANQ Reporting Station
NA  
Wind Chill: 61°   Ceiling: NA
Heat Index: 61°   Visibility: NA
Dew Point: 34°   Wind: 5mph
Humidity: 36%   Direction: 290°WNW
Pressure: 29.85"   Gusts: NA
Location:  41.5889°N, 85.0186°W
Report Text: KANQ 252315Z AUTO 29004KT 16/01 A2985 RMK
Loading
Personal Weather Stations






























Interactive Weather Map
Tropical Storm Tracking
New forecast layout! Learn more

10-Day Weather Forecast

Advertisements
Track Severe Weather on mobile